Time;durP1;ratioP1;P1;durP2;ratioP2;P2;SDS_P1;SDS_P2;PMS_P1;PMS_P2;Temp;Humidity;BMP_temperature;BMP_pressure;BME280_temperature;BME280_humidity;BME280_pressure;Samples;Min_cycle;Max_cycle;Signal;HPM_P1;HPM_P2
2024/01/14 00:00:37;;;;;;;29.97;16.23;;;-0.40;99.90;;;;;;4985841;28;20288;-84
2024/01/14 00:03:04;;;;;;;39.73;22.60;;;-0.60;99.90;;;;;;4989561;28;20251;-84
2024/01/14 00:05:30;;;;;;;34.88;17.95;;;-0.40;99.90;;;;;;4991561;28;20309;-83
2024/01/14 00:07:56;;;;;;;29.10;16.03;;;-0.90;99.90;;;;;;4985099;28;20345;-83
2024/01/14 00:10:22;;;;;;;32.63;15.98;;;-0.20;99.90;;;;;;4986764;28;20196;-83
2024/01/14 00:12:48;;;;;;;31.67;17.60;;;-0.20;99.90;;;;;;4990220;28;20247;-83
2024/01/14 00:15:14;;;;;;;40.40;17.60;;;-0.40;99.90;;;;;;4986318;28;20236;-83
2024/01/14 00:17:41;;;;;;;28.63;16.05;;;-0.60;99.90;;;;;;4988749;28;20218;-82
2024/01/14 00:20:09;;;;;;;29.23;15.82;;;-0.40;99.90;;;;;;4987329;28;20204;-83
2024/01/14 00:22:34;;;;;;;28.23;15.63;;;-0.30;99.90;;;;;;4984587;28;20235;-83
2024/01/14 00:25:00;;;;;;;26.67;14.67;;;0.20;99.90;;;;;;4988656;28;20256;-83
2024/01/14 00:27:26;;;;;;;30.90;15.67;;;-0.40;99.90;;;;;;4988264;28;21107;-83
2024/01/14 00:29:54;;;;;;;34.87;17.60;;;0.10;99.90;;;;;;4992859;28;20212;-85
2024/01/14 00:32:22;;;;;;;29.90;16.80;;;-0.40;99.90;;;;;;4993251;28;20203;-84
2024/01/14 00:34:48;;;;;;;27.70;15.32;;;-0.50;99.90;;;;;;4990051;28;20630;-82
2024/01/14 00:37:13;;;;;;;27.90;15.80;;;-0.40;99.90;;;;;;4988933;28;20240;-84
2024/01/14 00:39:39;;;;;;;33.20;16.33;;;-0.50;99.90;;;;;;4986289;28;20858;-84
2024/01/14 00:42:05;;;;;;;35.40;17.40;;;-0.20;99.90;;;;;;4985013;28;20224;-83
2024/01/14 00:44:31;;;;;;;36.20;16.52;;;0.10;99.90;;;;;;4990845;28;20204;-84
2024/01/14 00:46:57;;;;;;;33.50;17.13;;;-0.70;99.90;;;;;;4992461;28;20274;-85
2024/01/14 00:49:23;;;;;;;28.58;14.95;;;-0.40;99.90;;;;;;4988445;28;20244;-84
2024/01/14 00:51:48;;;;;;;29.30;18.07;;;0.10;99.90;;;;;;4988638;28;20189;-83
2024/01/14 00:54:14;;;;;;;29.57;14.93;;;-0.60;99.90;;;;;;4984795;28;20231;-84
2024/01/14 00:56:39;;;;;;;30.23;16.43;;;-0.60;99.90;;;;;;4986514;28;20188;-83
2024/01/14 00:59:05;;;;;;;32.63;17.30;;;-0.60;99.90;;;;;;4992555;28;20192;-83
2024/01/14 01:01:31;;;;;;;33.17;16.73;;;-0.50;99.90;;;;;;4987061;28;20208;-82
2024/01/14 01:03:56;;;;;;;26.37;16.50;;;-0.30;99.90;;;;;;4984910;28;20196;-83
2024/01/14 01:06:22;;;;;;;29.33;14.70;;;-0.30;99.90;;;;;;4986187;28;20176;-83
2024/01/14 01:08:48;;;;;;;28.77;18.27;;;-0.60;99.90;;;;;;4985129;28;20231;-83
2024/01/14 01:11:17;;;;;;;30.60;16.83;;;-0.60;99.90;;;;;;4983772;28;20203;-83
2024/01/14 01:13:42;;;;;;;27.52;15.13;;;-0.40;99.90;;;;;;4984823;28;20192;-83
2024/01/14 01:16:08;;;;;;;30.70;15.90;;;-0.50;99.90;;;;;;4985940;28;20215;-83
2024/01/14 01:18:34;;;;;;;28.90;16.57;;;-0.60;99.90;;;;;;4982341;28;20552;-83
2024/01/14 01:20:59;;;;;;;33.23;17.27;;;-0.70;99.90;;;;;;4989040;28;20476;-83
2024/01/14 01:23:25;;;;;;;33.83;18.60;;;-0.50;99.90;;;;;;4983958;28;21240;-83
2024/01/14 01:25:51;;;;;;;29.23;16.30;;;-0.10;99.90;;;;;;4985348;28;20235;-83
2024/01/14 01:28:16;;;;;;;35.00;16.83;;;-0.20;99.90;;;;;;4986622;28;20184;-83
2024/01/14 01:30:42;;;;;;;35.00;17.80;;;-0.90;99.90;;;;;;4992189;28;20212;-84
2024/01/14 01:33:08;;;;;;;27.77;18.33;;;-0.20;99.90;;;;;;4989968;28;20439;-83
2024/01/14 01:35:34;;;;;;;32.95;17.42;;;0.00;99.90;;;;;;4986234;28;20207;-83
2024/01/14 01:37:59;;;;;;;38.97;18.23;;;-0.10;99.90;;;;;;4986908;28;20192;-84
2024/01/14 01:40:25;;;;;;;32.50;15.97;;;-0.30;99.90;;;;;;4987431;28;20214;-84
2024/01/14 01:42:51;;;;;;;32.17;17.10;;;-0.80;99.90;;;;;;4983388;28;20295;-83
2024/01/14 01:45:16;;;;;;;35.78;17.67;;;-0.40;99.90;;;;;;4984374;28;20231;-84
2024/01/14 01:47:42;;;;;;;33.47;17.70;;;-0.30;99.90;;;;;;4990368;28;20183;-83
2024/01/14 01:50:09;;;;;;;32.47;15.70;;;-0.50;99.90;;;;;;4988726;28;20187;-83
2024/01/14 01:52:35;;;;;;;36.97;19.65;;;-0.50;99.90;;;;;;4984340;28;20453;-83
2024/01/14 01:55:04;;;;;;;39.58;19.27;;;-0.10;99.90;;;;;;4992936;28;20712;-83
2024/01/14 01:57:30;;;;;;;33.75;16.45;;;-0.60;99.90;;;;;;4995449;28;20188;-83
2024/01/14 01:59:56;;;;;;;34.53;17.88;;;0.00;99.90;;;;;;4984820;28;20629;-83
2024/01/14 02:02:22;;;;;;;28.92;15.95;;;0.00;99.90;;;;;;4986976;28;20634;-82
2024/01/14 02:04:48;;;;;;;33.83;17.00;;;-1.20;99.90;;;;;;4987842;28;20257;-84
2024/01/14 02:07:15;;;;;;;35.63;16.77;;;0.00;99.90;;;;;;4988259;28;20453;-83
2024/01/14 02:09:40;;;;;;;31.98;17.35;;;-0.30;99.90;;;;;;4987830;28;21214;-84
2024/01/14 02:12:06;;;;;;;29.10;16.47;;;-0.30;99.90;;;;;;4991028;28;20547;-84
2024/01/14 02:14:33;;;;;;;32.27;17.10;;;-0.30;99.90;;;;;;4986969;28;20203;-84
2024/01/14 02:16:58;;;;;;;33.38;18.30;;;-0.40;99.90;;;;;;4983811;28;20176;-84
2024/01/14 02:19:24;;;;;;;33.83;18.77;;;-0.20;99.90;;;;;;4986972;28;20183;-84
2024/01/14 02:21:58;;;;;;;29.03;16.60;;;-0.80;99.90;;;;;;4991279;28;20232;-84
2024/01/14 02:24:29;;;;;;;31.50;16.35;;;-0.50;99.90;;;;;;4985406;28;20207;-84
2024/01/14 02:26:55;;;;;;;26.83;14.88;;;;;;;;;;4987661;28;20184;-84
2024/01/14 02:29:21;;;;;;;34.22;16.90;;;-0.30;99.90;;;;;;4989751;28;20195;-83
2024/01/14 02:31:47;;;;;;;32.60;18.10;;;-0.10;99.90;;;;;;4989465;28;20188;-83
2024/01/14 02:34:13;;;;;;;29.23;17.65;;;0.00;99.90;;;;;;4989767;28;20468;-82
2024/01/14 02:36:39;;;;;;;29.00;17.02;;;0.40;99.90;;;;;;4980020;28;20538;-83
2024/01/14 02:39:05;;;;;;;30.60;16.57;;;0.10;99.90;;;;;;4984104;28;20719;-83
2024/01/14 02:41:31;;;;;;;36.67;18.97;;;-0.20;99.90;;;;;;4983000;28;20668;-82
2024/01/14 02:43:57;;;;;;;34.75;17.23;;;0.00;99.90;;;;;;4986744;28;20577;-84
2024/01/14 02:46:23;;;;;;;35.10;17.17;;;-0.20;99.90;;;;;;4982112;28;20208;-85
2024/01/14 02:48:48;;;;;;;33.58;17.15;;;-0.10;99.90;;;;;;4983763;28;20184;-84
2024/01/14 02:51:14;;;;;;;32.23;17.07;;;0.00;99.90;;;;;;4984360;28;20211;-83
2024/01/14 02:53:40;;;;;;;31.77;16.53;;;0.00;99.90;;;;;;4987929;28;20723;-83
2024/01/14 02:56:05;;;;;;;35.20;19.03;;;0.00;99.90;;;;;;4986114;28;20476;-83
2024/01/14 02:58:31;;;;;;;32.97;15.80;;;0.30;99.90;;;;;;4985156;28;20219;-84
2024/01/14 03:00:56;;;;;;;31.07;16.50;;;0.00;99.90;;;;;;4979246;28;20211;-84
2024/01/14 03:03:22;;;;;;;32.40;18.50;;;-0.20;99.90;;;;;;4989432;28;20227;-83
2024/01/14 03:05:47;;;;;;;29.33;16.13;;;0.10;99.90;;;;;;4983538;28;20231;-83
2024/01/14 03:08:13;;;;;;;34.63;17.53;;;-0.60;99.90;;;;;;4987292;28;20201;-83
2024/01/14 03:10:39;;;;;;;32.87;15.13;;;-0.40;99.90;;;;;;4990061;28;20184;-83
2024/01/14 03:13:04;;;;;;;29.97;16.83;;;-0.10;99.90;;;;;;4988774;28;20196;-83
2024/01/14 03:15:30;;;;;;;28.57;15.93;;;-0.50;99.90;;;;;;4989732;28;20219;-83
2024/01/14 03:17:56;;;;;;;31.83;18.25;;;-0.20;99.90;;;;;;4990687;28;20223;-83
2024/01/14 03:20:22;;;;;;;30.80;15.63;;;-0.20;99.90;;;;;;4987103;28;20219;-83
2024/01/14 03:22:48;;;;;;;30.27;15.75;;;0.00;99.90;;;;;;4988519;28;20272;-83
2024/01/14 03:25:14;;;;;;;32.83;17.37;;;-0.70;99.90;;;;;;4991981;28;20203;-83
2024/01/14 03:27:39;;;;;;;32.23;15.63;;;-0.90;99.90;;;;;;4992541;28;20188;-83
2024/01/14 03:30:05;;;;;;;30.17;16.00;;;-0.40;99.90;;;;;;4987919;28;20188;-84
2024/01/14 03:32:31;;;;;;;29.83;15.68;;;-0.40;99.90;;;;;;4992745;28;20206;-84
2024/01/14 03:34:57;;;;;;;31.50;16.17;;;-0.70;99.90;;;;;;4995219;28;20216;-84
2024/01/14 03:37:23;;;;;;;27.92;15.70;;;-0.60;99.90;;;;;;4986513;28;20192;-83
2024/01/14 03:39:49;;;;;;;27.20;15.03;;;-0.30;99.90;;;;;;4991490;28;20258;-84
2024/01/14 03:42:18;;;;;;;35.28;18.55;;;-0.70;99.90;;;;;;4985023;28;20200;-84
2024/01/14 03:44:43;;;;;;;30.08;16.00;;;-0.80;99.90;;;;;;4984908;28;20204;-82
2024/01/14 03:47:09;;;;;;;31.83;14.83;;;-0.80;99.90;;;;;;4987309;28;20184;-83
2024/01/14 03:49:35;;;;;;;24.42;14.60;;;-1.20;99.90;;;;;;4987653;28;20586;-82
2024/01/14 03:52:01;;;;;;;27.33;15.00;;;-0.60;99.90;;;;;;4987384;28;20187;-82
2024/01/14 03:54:26;;;;;;;30.30;16.90;;;-0.60;99.90;;;;;;4991924;28;20299;-83
2024/01/14 03:56:52;;;;;;;27.30;14.63;;;-0.70;99.90;;;;;;4986266;28;20223;-82
2024/01/14 03:59:17;;;;;;;27.63;14.80;;;-0.70;99.90;;;;;;4987474;28;20189;-82
2024/01/14 04:01:43;;;;;;;30.37;15.63;;;-0.50;99.90;;;;;;4984076;28;20208;-82
2024/01/14 04:04:09;;;;;;;24.70;14.13;;;-0.60;99.90;;;;;;4991545;28;20756;-83
2024/01/14 04:06:35;;;;;;;31.30;15.30;;;-1.20;99.90;;;;;;4992147;28;20468;-82
2024/01/14 04:09:01;;;;;;;28.93;15.97;;;-1.20;99.90;;;;;;4984860;28;20179;-82
2024/01/14 04:11:26;;;;;;;33.77;16.90;;;-0.40;99.90;;;;;;4987175;28;20439;-83
2024/01/14 04:13:52;;;;;;;29.47;15.87;;;-0.70;99.90;;;;;;4989382;28;20447;-84
2024/01/14 04:16:18;;;;;;;32.70;16.17;;;-0.70;99.90;;;;;;4989267;28;20196;-83
2024/01/14 04:18:43;;;;;;;29.67;16.50;;;-0.70;99.90;;;;;;4986439;28;20192;-83
2024/01/14 04:21:22;;;;;;;30.90;16.67;;;-0.70;99.90;;;;;;4990524;28;20215;-82
2024/01/14 04:23:48;;;;;;;41.05;19.02;;;-0.80;99.90;;;;;;4990530;28;20187;-82
2024/01/14 04:26:17;;;;;;;32.35;18.30;;;-0.90;99.90;;;;;;4990795;28;20653;-83
2024/01/14 04:28:43;;;;;;;34.10;17.15;;;-1.20;99.90;;;;;;4992472;28;20649;-84
2024/01/14 04:31:09;;;;;;;37.67;16.80;;;-0.90;99.90;;;;;;4987847;28;20195;-83
2024/01/14 04:33:34;;;;;;;36.85;17.60;;;-0.70;99.90;;;;;;4990188;28;20198;-83
2024/01/14 04:36:01;;;;;;;34.57;16.90;;;-0.50;99.90;;;;;;4983292;28;20260;-83
2024/01/14 04:38:27;;;;;;;38.38;19.48;;;-1.20;99.90;;;;;;4985854;28;20555;-83
2024/01/14 04:40:52;;;;;;;35.40;17.20;;;-1.20;99.90;;;;;;4985753;28;20231;-83
2024/01/14 04:43:18;;;;;;;44.53;18.20;;;-0.70;99.90;;;;;;4988309;28;20200;-83
2024/01/14 04:45:43;;;;;;;36.50;16.87;;;-1.10;99.90;;;;;;4982692;28;20219;-83
2024/01/14 04:48:09;;;;;;;39.93;17.70;;;-0.90;99.90;;;;;;4988860;28;20196;-84
2024/01/14 04:50:35;;;;;;;33.27;15.50;;;-1.00;99.90;;;;;;4990207;28;20187;-82
2024/01/14 04:53:01;;;;;;;31.15;15.95;;;-0.90;99.90;;;;;;4994054;28;20238;-83
2024/01/14 04:55:26;;;;;;;33.97;16.67;;;-1.50;99.90;;;;;;4988886;28;20212;-84
2024/01/14 04:57:52;;;;;;;31.00;16.30;;;-0.90;99.90;;;;;;4985532;28;20189;-83
2024/01/14 05:00:18;;;;;;;33.70;17.10;;;-1.10;99.90;;;;;;4987016;28;20633;-84
2024/01/14 05:02:43;;;;;;;32.67;15.53;;;-1.10;99.90;;;;;;4981678;28;20195;-84
2024/01/14 05:05:09;;;;;;;31.50;15.30;;;-0.70;99.90;;;;;;4987728;28;20466;-83
2024/01/14 05:07:34;;;;;;;32.37;17.53;;;-0.80;99.90;;;;;;4983523;28;20489;-82
2024/01/14 05:10:00;;;;;;;28.93;14.30;;;-0.60;99.90;;;;;;4987408;28;20258;-83
2024/01/14 05:12:25;;;;;;;29.83;14.80;;;-1.10;99.90;;;;;;4990104;28;20204;-84
2024/01/14 05:14:51;;;;;;;27.87;15.00;;;-0.70;99.90;;;;;;4988772;28;20222;-83
2024/01/14 05:17:16;;;;;;;28.90;14.97;;;-1.10;99.90;;;;;;4985047;28;20187;-82
2024/01/14 05:19:42;;;;;;;33.93;17.27;;;-1.00;99.90;;;;;;4991468;28;20188;-82
2024/01/14 05:22:07;;;;;;;32.70;15.03;;;-1.50;99.90;;;;;;4993995;28;20641;-83
2024/01/14 05:24:33;;;;;;;34.87;16.90;;;-0.50;99.90;;;;;;4987908;28;20196;-83
2024/01/14 05:26:59;;;;;;;33.93;16.63;;;-0.80;99.90;;;;;;4990160;28;20207;-83
2024/01/14 05:29:24;;;;;;;28.40;15.93;;;-0.50;99.90;;;;;;4986267;28;20172;-82
2024/01/14 05:31:49;;;;;;;30.60;16.23;;;-1.80;99.90;;;;;;4986865;28;20252;-83
2024/01/14 05:34:15;;;;;;;30.93;16.23;;;-1.40;99.90;;;;;;4986751;28;20301;-83
2024/01/14 05:36:41;;;;;;;30.43;15.20;;;-1.20;99.90;;;;;;4989550;28;20207;-82
2024/01/14 05:39:06;;;;;;;31.70;15.30;;;-1.30;99.90;;;;;;4990423;28;20200;-82
2024/01/14 05:41:32;;;;;;;33.17;15.50;;;-0.50;99.90;;;;;;4983096;28;20567;-82
2024/01/14 05:43:57;;;;;;;34.27;15.00;;;-1.30;99.90;;;;;;4986392;28;20554;-83
2024/01/14 05:46:23;;;;;;;30.17;16.00;;;-1.30;99.90;;;;;;4988269;28;20188;-83
2024/01/14 05:48:49;;;;;;;28.33;14.57;;;-1.20;99.90;;;;;;4987509;28;20454;-84
2024/01/14 05:51:15;;;;;;;32.47;18.43;;;-1.00;99.90;;;;;;4983019;28;20506;-84
2024/01/14 05:53:40;;;;;;;28.40;14.27;;;-1.20;99.90;;;;;;4986534;28;20191;-82
2024/01/14 05:56:06;;;;;;;29.33;14.43;;;;;;;;;;4984143;28;20476;-83
2024/01/14 05:58:32;;;;;;;31.13;16.50;;;-1.50;99.90;;;;;;4988281;28;20273;-83
2024/01/14 06:00:58;;;;;;;31.73;16.27;;;-1.30;99.90;;;;;;4987375;28;20227;-83
2024/01/14 06:03:24;;;;;;;27.60;13.00;;;-1.50;99.90;;;;;;4987327;28;20207;-83
2024/01/14 06:05:49;;;;;;;34.30;15.40;;;-1.00;99.90;;;;;;4989792;28;20689;-84
2024/01/14 06:08:18;;;;;;;26.17;15.23;;;-1.00;99.90;;;;;;4979393;28;20185;-83
2024/01/14 06:10:43;;;;;;;27.42;15.15;;;-1.00;99.90;;;;;;4984648;28;20237;-83
2024/01/14 06:13:09;;;;;;;29.77;15.00;;;-1.10;99.90;;;;;;4989516;28;20191;-84
2024/01/14 06:15:34;;;;;;;27.70;14.43;;;-1.50;99.90;;;;;;4986259;28;20207;-83
2024/01/14 06:18:00;;;;;;;22.00;12.67;;;-1.40;99.90;;;;;;4984989;28;20182;-83
2024/01/14 06:20:25;;;;;;;24.10;13.47;;;-1.90;99.90;;;;;;4987294;28;20259;-82
2024/01/14 06:22:51;;;;;;;25.57;15.17;;;-1.60;99.90;;;;;;4979230;28;20224;-82
2024/01/14 06:25:16;;;;;;;30.03;13.83;;;-1.70;99.90;;;;;;4985622;28;20230;-83
2024/01/14 06:27:42;;;;;;;24.47;12.40;;;-1.50;99.90;;;;;;4988186;28;20200;-83
2024/01/14 06:30:08;;;;;;;23.80;12.50;;;-1.00;99.90;;;;;;4986994;28;20986;-83
2024/01/14 06:32:34;;;;;;;26.95;14.32;;;-1.60;99.90;;;;;;4987332;28;20246;-83
2024/01/14 06:35:00;;;;;;;25.80;13.13;;;-1.40;99.90;;;;;;4985799;28;20700;-82
2024/01/14 06:37:25;;;;;;;40.53;16.85;;;-1.60;99.90;;;;;;4984584;28;20200;-84
2024/01/14 06:39:51;;;;;;;34.17;14.30;;;-1.10;99.90;;;;;;4990422;28;20203;-82
2024/01/14 06:42:16;;;;;;;31.90;14.27;;;-0.90;99.90;;;;;;4988194;28;20199;-84
2024/01/14 06:44:42;;;;;;;30.20;15.07;;;-1.60;99.90;;;;;;4989716;28;20203;-81
2024/01/14 06:47:07;;;;;;;31.63;15.00;;;-1.50;99.90;;;;;;4994114;28;20190;-83
2024/01/14 06:49:33;;;;;;;27.07;13.20;;;-1.50;99.90;;;;;;4996415;28;20256;-81
2024/01/14 06:51:58;;;;;;;30.57;14.80;;;-1.50;99.90;;;;;;4994717;28;20285;-82
2024/01/14 06:54:24;;;;;;;28.30;15.00;;;-1.10;99.90;;;;;;4990092;28;20222;-83
2024/01/14 06:56:49;;;;;;;29.37;14.13;;;-1.40;99.90;;;;;;4996265;28;20195;-82
2024/01/14 06:59:21;;;;;;;28.87;15.60;;;-1.40;99.90;;;;;;4984475;28;20214;-82
2024/01/14 07:01:47;;;;;;;32.05;16.35;;;-1.20;99.90;;;;;;4990772;28;20211;-81
2024/01/14 07:04:13;;;;;;;32.87;15.50;;;-1.50;99.90;;;;;;4987498;28;20212;-82
2024/01/14 07:06:39;;;;;;;30.13;14.85;;;-1.50;99.90;;;;;;4995535;28;20458;-82
2024/01/14 07:09:04;;;;;;;31.33;15.93;;;-1.30;99.90;;;;;;4992688;28;20216;-82
2024/01/14 07:11:30;;;;;;;32.80;14.73;;;-1.40;99.90;;;;;;4994837;28;20198;-82
2024/01/14 07:13:58;;;;;;;35.03;15.45;;;-1.60;99.90;;;;;;4994910;28;20665;-83
2024/01/14 07:16:23;;;;;;;28.73;15.15;;;-2.10;99.90;;;;;;4997539;28;20190;-83
2024/01/14 07:18:49;;;;;;;34.70;18.60;;;-1.60;99.90;;;;;;5001771;28;20184;-83
2024/01/14 07:21:14;;;;;;;33.60;16.00;;;-1.40;99.90;;;;;;4999096;28;20203;-83
2024/01/14 07:23:40;;;;;;;32.70;16.30;;;-1.20;99.90;;;;;;4994531;28;20549;-83
2024/01/14 07:26:13;;;;;;;30.87;16.30;;;-1.40;99.90;;;;;;4991024;28;20254;-82
2024/01/14 07:28:39;;;;;;;32.95;17.10;;;-2.20;99.90;;;;;;4991422;28;20235;-83
2024/01/14 07:31:04;;;;;;;28.50;15.27;;;-1.40;99.90;;;;;;4993070;28;20195;-83
2024/01/14 07:33:30;;;;;;;32.47;16.60;;;-1.50;99.90;;;;;;4996541;28;20520;-83
2024/01/14 07:35:56;;;;;;;28.77;14.60;;;-1.10;99.90;;;;;;4987649;28;20503;-83
2024/01/14 07:38:21;;;;;;;33.30;14.63;;;-1.40;99.90;;;;;;4997633;28;20705;-83
2024/01/14 07:40:47;;;;;;;27.20;16.23;;;-1.40;99.90;;;;;;4990044;28;20284;-83
2024/01/14 07:43:12;;;;;;;34.70;17.50;;;-1.20;99.90;;;;;;4988423;28;20192;-83
2024/01/14 07:45:38;;;;;;;28.07;15.00;;;-1.40;99.90;;;;;;4988738;28;20231;-83
2024/01/14 07:48:04;;;;;;;29.90;15.10;;;-1.00;99.90;;;;;;4984504;28;20247;-83
2024/01/14 07:50:29;;;;;;;30.40;15.68;;;-1.40;99.90;;;;;;4984430;28;20203;-82
2024/01/14 07:52:55;;;;;;;31.30;15.73;;;-0.90;99.90;;;;;;4984049;28;20192;-82
2024/01/14 07:55:20;;;;;;;29.53;15.73;;;-1.00;99.90;;;;;;4982375;28;20211;-82
2024/01/14 07:57:46;;;;;;;31.00;15.27;;;-1.30;99.90;;;;;;4983237;28;20279;-82
2024/01/14 08:00:12;;;;;;;29.77;16.90;;;-1.10;99.90;;;;;;4984261;28;20207;-82
2024/01/14 08:02:38;;;;;;;33.28;15.45;;;-1.10;99.90;;;;;;4979770;28;20308;-82
2024/01/14 08:05:04;;;;;;;27.80;15.23;;;-1.30;99.90;;;;;;4983708;28;20668;-82
2024/01/14 08:07:30;;;;;;;31.85;16.85;;;-1.10;99.90;;;;;;4987988;28;20184;-82
2024/01/14 08:09:56;;;;;;;27.10;13.47;;;-1.30;99.90;;;;;;4988466;28;20203;-83
2024/01/14 08:12:22;;;;;;;33.70;14.82;;;-1.20;99.90;;;;;;4981971;28;20878;-84
2024/01/14 08:14:48;;;;;;;28.43;15.17;;;-1.00;99.90;;;;;;4982652;28;20302;-83
2024/01/14 08:17:15;;;;;;;29.33;16.25;;;-1.00;99.90;;;;;;4982108;28;20207;-83
2024/01/14 08:19:41;;;;;;;33.92;16.08;;;-1.00;99.90;;;;;;4980873;28;21021;-82
2024/01/14 08:22:07;;;;;;;32.40;16.80;;;-1.10;99.90;;;;;;4985623;28;20310;-83
2024/01/14 08:24:33;;;;;;;31.10;16.10;;;-1.00;99.90;;;;;;4982522;28;20232;-84
2024/01/14 08:26:59;;;;;;;30.25;14.88;;;-0.80;99.90;;;;;;4986395;28;20184;-84
2024/01/14 08:29:25;;;;;;;36.63;16.67;;;-0.70;99.90;;;;;;4985512;28;20939;-83
2024/01/14 08:31:50;;;;;;;28.87;15.63;;;-0.70;99.90;;;;;;4978880;28;20184;-83
2024/01/14 08:34:16;;;;;;;29.80;16.10;;;-0.50;99.90;;;;;;4983320;28;20211;-83
2024/01/14 08:36:41;;;;;;;26.47;15.20;;;-0.60;99.90;;;;;;4978706;28;20184;-86
2024/01/14 08:39:07;;;;;;;25.57;14.70;;;-0.80;99.90;;;;;;4984167;28;20191;-84
2024/01/14 08:41:32;;;;;;;30.70;15.53;;;-0.80;99.90;;;;;;4987042;28;20279;-84
2024/01/14 08:43:59;;;;;;;37.47;19.40;;;-0.60;99.90;;;;;;4977517;28;20203;-85
2024/01/14 08:46:26;;;;;;;29.60;17.52;;;-0.80;99.90;;;;;;4980082;28;20601;-86
2024/01/14 08:48:51;;;;;;;27.92;14.43;;;-1.40;99.90;;;;;;4980031;28;20657;-85
2024/01/14 08:51:17;;;;;;;32.70;18.10;;;-0.90;99.90;;;;;;4981263;28;20190;-86
2024/01/14 08:53:42;;;;;;;32.73;17.13;;;-0.60;99.90;;;;;;4987140;28;20191;-86
2024/01/14 08:56:08;;;;;;;33.60;17.80;;;-0.80;99.90;;;;;;4985837;28;20564;-84
2024/01/14 08:58:33;;;;;;;26.50;15.70;;;-0.50;99.90;;;;;;4983095;28;20591;-85
2024/01/14 09:00:59;;;;;;;36.10;18.07;;;-1.20;99.90;;;;;;4976649;28;20211;-85
2024/01/14 09:03:24;;;;;;;37.60;17.03;;;-0.90;99.90;;;;;;4986324;28;20184;-85
2024/01/14 09:05:50;;;;;;;32.40;18.00;;;-0.60;99.90;;;;;;4983971;28;20234;-85
2024/01/14 09:08:16;;;;;;;29.30;15.70;;;-0.80;99.90;;;;;;4992695;28;20213;-86
2024/01/14 09:10:42;;;;;;;28.27;15.18;;;-0.10;99.90;;;;;;4988678;28;20208;-86
2024/01/14 09:13:07;;;;;;;28.83;17.47;;;0.00;99.90;;;;;;4989450;28;20248;-86
2024/01/14 09:15:34;;;;;;;33.90;16.73;;;-0.30;99.90;;;;;;4987528;28;20458;-86
2024/01/14 09:17:59;;;;;;;34.22;15.50;;;-0.40;99.90;;;;;;4984558;28;20282;-86
2024/01/14 09:20:25;;;;;;;30.33;16.70;;;;;;;;;;4990385;28;20235;-86
2024/01/14 09:22:51;;;;;;;28.77;15.30;;;-0.40;99.90;;;;;;4993140;28;20187;-85
2024/01/14 09:25:16;;;;;;;28.80;16.37;;;-0.40;99.90;;;;;;4989728;28;20537;-84
2024/01/14 09:27:42;;;;;;;29.83;14.73;;;-0.50;99.90;;;;;;4990282;28;20260;-86
2024/01/14 09:30:07;;;;;;;29.87;16.23;;;0.00;99.90;;;;;;4999763;28;20210;-84
2024/01/14 09:32:33;;;;;;;27.87;15.40;;;-0.20;99.90;;;;;;4992902;28;20271;-85
2024/01/14 09:34:59;;;;;;;30.80;17.93;;;0.20;99.90;;;;;;4985385;28;20496;-85
2024/01/14 09:37:24;;;;;;;32.83;17.90;;;-0.10;99.90;;;;;;4994281;28;20211;-84
2024/01/14 09:39:50;;;;;;;35.03;19.10;;;0.00;99.90;;;;;;4999499;28;20241;-83
2024/01/14 09:42:24;;;;;;;30.57;17.47;;;-0.20;99.90;;;;;;4986766;28;20199;-84
2024/01/14 09:45:00;;;;;;;31.67;16.50;;;0.50;99.90;;;;;;4988372;28;20211;-84
2024/01/14 09:47:26;;;;;;;29.10;16.80;;;0.90;99.90;;;;;;4988879;28;20179;-84
2024/01/14 09:49:54;;;;;;;30.30;17.55;;;0.80;99.90;;;;;;4991134;28;20578;-82
2024/01/14 09:52:21;;;;;;;28.48;15.68;;;0.90;99.90;;;;;;4984182;28;20658;-82
2024/01/14 09:54:47;;;;;;;31.27;17.75;;;1.10;99.80;;;;;;4987377;28;20208;-82
2024/01/14 09:57:17;;;;;;;27.60;15.77;;;0.60;99.30;;;;;;4983064;28;20192;-83
2024/01/14 09:59:43;;;;;;;30.42;16.60;;;1.10;98.80;;;;;;4987843;28;20176;-82
2024/01/14 10:02:10;;;;;;;28.63;18.15;;;1.50;99.20;;;;;;4986893;28;20208;-82
2024/01/14 10:04:42;;;;;;;26.02;16.92;;;2.10;98.90;;;;;;4980979;28;20255;-85
2024/01/14 10:07:09;;;;;;;31.75;17.38;;;1.40;98.30;;;;;;5008590;28;20184;-84
2024/01/14 10:09:35;;;;;;;32.15;17.40;;;1.60;98.30;;;;;;4989776;28;20239;-83
2024/01/14 10:12:01;;;;;;;30.17;17.33;;;2.10;98.20;;;;;;4985864;28;20215;-85
2024/01/14 10:14:27;;;;;;;32.60;18.57;;;2.40;97.60;;;;;;4980909;28;20216;-84
2024/01/14 10:16:59;;;;;;;33.20;20.70;;;2.80;96.90;;;;;;4992843;28;20511;-84
2024/01/14 10:19:25;;;;;;;33.88;20.27;;;2.30;96.50;;;;;;5000298;28;20192;-84
2024/01/14 10:21:55;;;;;;;29.43;17.87;;;2.40;96.20;;;;;;4980052;28;20222;-84
2024/01/14 10:24:21;;;;;;;32.85;17.70;;;2.60;96.30;;;;;;4985556;28;20476;-83
2024/01/14 10:26:54;;;;;;;31.13;18.17;;;2.20;96.50;;;;;;4977911;28;20187;-83
2024/01/14 10:29:20;;;;;;;37.38;18.88;;;2.50;96.90;;;;;;4983630;28;20193;-84
2024/01/14 10:31:46;;;;;;;30.83;18.92;;;2.50;96.30;;;;;;4984182;28;20567;-85
2024/01/14 10:34:12;;;;;;;26.23;16.53;;;3.10;95.80;;;;;;4985600;28;20212;-85
2024/01/14 10:36:38;;;;;;;31.17;17.60;;;3.70;95.40;;;;;;4981135;28;20833;-86
2024/01/14 10:39:05;;;;;;;29.50;17.63;;;3.90;94.10;;;;;;4982045;28;20197;-85
2024/01/14 10:41:32;;;;;;;27.48;16.77;;;3.50;93.70;;;;;;4982991;28;20472;-84
2024/01/14 10:43:58;;;;;;;31.27;19.58;;;3.40;93.10;;;;;;4981390;28;20184;-84
2024/01/14 10:46:30;;;;;;;27.40;17.10;;;3.60;93.70;;;;;;4983709;28;20242;-84
2024/01/14 10:49:05;;;;;;;30.63;17.10;;;3.40;93.30;;;;;;4978241;28;20996;-83
2024/01/14 10:51:36;;;;;;;28.10;17.00;;;3.60;93.40;;;;;;4999391;28;20202;-84
2024/01/14 10:54:16;;;;;;;29.90;16.42;;;4.60;91.50;;;;;;4996191;28;20187;-86
2024/01/14 10:56:48;;;;;;;29.55;18.30;;;4.10;91.70;;;;;;4986391;28;20180;-86
2024/01/14 10:59:16;;;;;;;28.13;17.25;;;4.90;91.10;;;;;;4984639;28;20195;-85
2024/01/14 11:01:53;;;;;;;30.02;19.63;;;4.30;90.30;;;;;;4987373;28;20220;-86
2024/01/14 11:04:20;;;;;;;28.17;17.98;;;4.90;90.20;;;;;;5004391;28;20314;-84
2024/01/14 11:06:47;;;;;;;28.75;16.27;;;5.40;90.10;;;;;;4989235;28;20192;-85
2024/01/14 11:09:12;;;;;;;28.23;17.75;;;5.40;89.70;;;;;;4993486;28;20193;-85
2024/01/14 11:12:03;;;;;;;28.23;16.97;;;5.10;88.60;;;;;;4990865;28;20275;-84
2024/01/14 11:14:40;;;;;;;24.65;16.85;;;5.10;88.90;;;;;;4985528;28;20210;-85
2024/01/14 11:17:45;;;;;;;26.20;16.42;;;4.50;89.70;;;;;;4988146;28;20180;-85
2024/01/14 11:20:18;;;;;;;27.10;16.10;;;4.60;90.30;;;;;;4958649;28;20218;-84
2024/01/14 11:22:44;;;;;;;29.33;15.05;;;4.80;90.40;;;;;;4986395;28;20664;-84
2024/01/14 11:25:16;;;;;;;26.23;16.87;;;4.60;90.20;;;;;;4994319;28;20204;-85
2024/01/14 11:27:43;;;;;;;26.17;16.52;;;4.20;90.20;;;;;;4992496;28;20210;-85
2024/01/14 11:30:11;;;;;;;27.98;16.80;;;4.20;90.50;;;;;;4987460;28;20247;-84
2024/01/14 11:32:36;;;;;;;24.00;17.02;;;5.00;90.10;;;;;;4997437;28;20218;-84
2024/01/14 11:35:03;;;;;;;35.03;17.37;;;4.70;89.50;;;;;;4999501;28;20207;-84
2024/01/14 11:37:45;;;;;;;31.55;17.48;;;5.00;90.00;;;;;;4999564;28;20184;-84
2024/01/14 11:40:17;;;;;;;28.33;17.27;;;5.00;90.30;;;;;;4993891;28;20692;-84
2024/01/14 11:42:47;;;;;;;32.22;17.67;;;4.50;90.20;;;;;;4991673;28;20573;-85
2024/01/14 11:45:30;;;;;;;25.90;15.68;;;4.20;90.50;;;;;;4998086;28;20210;-85
2024/01/14 11:47:56;;;;;;;23.45;14.77;;;3.70;90.50;;;;;;4996041;28;20211;-85
2024/01/14 11:50:24;;;;;;;24.70;15.40;;;4.80;91.00;;;;;;4993752;28;20187;-84
2024/01/14 11:52:56;;;;;;;24.83;15.02;;;4.50;91.10;;;;;;4984113;28;20442;-84
2024/01/14 11:55:28;;;;;;;24.85;15.30;;;4.40;90.20;;;;;;4992502;28;20211;-85
2024/01/14 11:57:53;;;;;;;26.40;16.80;;;5.30;89.60;;;;;;4986766;28;20280;-85
2024/01/14 12:00:24;;;;;;;25.45;16.05;;;5.10;88.50;;;;;;4989005;28;20239;-84
2024/01/14 12:03:10;;;;;;;24.08;14.55;;;4.50;88.10;;;;;;5010090;28;20225;-85
2024/01/14 12:05:36;;;;;;;23.70;14.88;;;4.70;90.60;;;;;;4993232;28;20206;-86
2024/01/14 12:08:02;;;;;;;22.98;15.45;;;4.50;90.20;;;;;;4995163;28;20578;-85
2024/01/14 12:10:28;;;;;;;25.47;15.03;;;4.50;90.20;;;;;;4996099;28;20281;-85
2024/01/14 12:12:55;;;;;;;24.20;16.00;;;3.80;90.70;;;;;;4984409;28;20219;-85
2024/01/14 12:15:21;;;;;;;24.52;15.93;;;4.10;91.10;;;;;;4992710;28;20305;-84
2024/01/14 12:17:57;;;;;;;25.63;15.33;;;4.50;90.90;;;;;;4988500;28;20644;-84
2024/01/14 12:20:24;;;;;;;30.83;18.00;;;3.90;91.50;;;;;;4992443;28;20236;-83
2024/01/14 12:23:02;;;;;;;27.00;16.00;;;3.40;92.20;;;;;;4994386;28;20209;-84
2024/01/14 12:25:28;;;;;;;30.02;16.08;;;3.90;92.50;;;;;;4989625;28;20206;-85
2024/01/14 12:27:54;;;;;;;29.70;15.50;;;4.10;92.50;;;;;;4993708;28;20210;-85